EDT,Max TemperatureF,Mean TemperatureF,Min TemperatureF,Max Dew PointF,MeanDew PointF,Min DewpointF,Max Humidity, Mean Humidity, Min Humidity, Max Sea Level PressureIn, Mean Sea Level PressureIn, Min Sea Level PressureIn, Max VisibilityMiles, Mean VisibilityMiles, Min VisibilityMiles, Max Wind SpeedMPH, Mean Wind SpeedMPH, Max Gust SpeedMPH,PrecipitationIn, CloudCover, Events, WindDirDegrees
2012-10-1,65,54,42,50,47,43,100,76,43,29.94,29.91,29.87,15,15,15,12,6,,0.00,5,,264
2012-10-2,65,56,48,57,52,46,100,86,68,29.96,29.92,29.88,15,14,2,14,7,,0.00,7,Rain,44
2012-10-3,73,65,57,66,60,55,100,92,60,30.12,30.02,29.94,15,5,0,15,10,24,0.00,7,Fog-Rain,76
2012-10-4,73,64,56,57,55,52,100,77,42,30.14,30.08,30.02,15,14,7,25,11,36,0.00,4,,210
2012-10-5,64,57,48,57,51,43,94,72,45,30.02,29.97,29.93,15,14,6,16,11,26,0.43,7,Rain,238
2012-10-6,51,46,42,45,39,32,100,77,45,30.06,29.94,29.86,15,13,6,24,10,31,0.04,6,Rain,249
2012-10-7,47,43,35,41,37,34,93,79,56,30.14,30.08,30.05,15,15,12,9,5,,0.02,7,Rain,266
2012-10-8,54,44,34,37,34,30,95,72,35,30.23,30.18,30.13,15,15,15,16,5,22,0.00,5,,220
2012-10-9,57,48,38,41,38,36,87,69,39,30.20,30.10,29.95,15,15,15,18,9,25,0.00,5,,180
2012-10-10,52,46,41,46,39,30,93,72,46,30.04,29.86,29.75,15,14,7,23,13,32,0.08,5,Rain,237
2012-10-11,54,42,29,43,33,27,93,64,43,30.20,30.09,29.99,15,15,7,30,14,44,0.02,4,Rain,240
2012-10-12,48,42,33,43,30,21,93,64,34,30.46,30.32,30.09,15,15,7,13,8,20,0.02,4,Rain,325
2012-10-13,53,40,28,50,33,21,94,71,43,30.45,30.28,29.94,15,13,6,20,6,25,0.20,5,Rain,156
2012-10-14,73,59,45,61,58,52,100,87,64,29.91,29.79,29.54,15,10,2,28,17,37,0.12,8,Rain,208
2012-10-15,63,54,44,57,46,37,88,78,65,29.85,29.64,29.46,15,14,7,31,21,46,0.12,7,Rain,246
2012-10-16,51,44,38,43,38,34,93,79,48,29.96,29.91,29.86,15,15,15,13,7,17,0.00,5,Rain,260
2012-10-17,66,52,39,50,46,37,100,76,42,29.89,29.82,29.75,15,15,15,16,7,24,0.08,5,Rain,168
2012-10-18,67,58,46,50,47,44,94,72,39,29.80,29.69,29.61,15,15,8,25,13,34,0.02,6,Fog-Rain,163
2012-10-19,56,47,38,50,45,41,100,95,67,29.80,29.74,29.64,15,8,0,14,8,21,0.24,5,Fog-Rain,48
2012-10-20,52,48,44,48,45,43,100,90,72,29.83,29.68,29.62,15,12,2,17,10,22,0.12,7,Rain,225
2012-10-21,59,50,41,48,44,41,100,86,55,30.11,30.01,29.83,15,11,1,15,10,20,0.00,5,Fog,252
2012-10-22,66,52,37,52,45,37,100,80,43,30.15,30.11,30.06,15,14,7,10,6,,0.16,3,Fog-Rain-Thunderstorm,210
2012-10-23,52,49,46,52,49,46,100,99,88,30.10,30.05,30.02,15,2,0,20,12,29,0.31,8,Fog-Rain,46
2012-10-24,51,48,46,50,47,46,100,98,88,30.13,30.11,30.08,8,2,0,18,13,24,0.08,8,Fog-Rain,47
2012-10-25,75,61,47,59,51,48,100,86,40,30.10,30.05,29.94,15,6,0,15,8,21,0.00,2,Fog-Rain,79
2012-10-26,64,54,44,54,48,41,100,82,65,30.21,30.08,29.94,15,14,6,16,11,,0.04,6,Rain,285
2012-10-27,45,44,41,43,42,39,100,92,81,30.20,30.12,30.07,15,10,2,15,11,22,0.43,8,Rain,4
2012-10-28,39,39,39,37,37,36,93,90,80,30.14,30.08,29.99,15,10,4,18,15,26,0.28,8,Rain,9
2012-10-29,40,38,37,39,37,36,93,92,83,29.97,29.79,29.42,15,11,2,31,18,46,0.43,8,Rain,357
2012-10-30,52,45,38,52,45,37,100,93,87,29.39,29.25,29.17,15,10,2,36,24,48,0.67,8,Rain,35
2012-10-31,45,43,41,45,42,39,100,94,83,29.48,29.43,29.38,15,13,5,14,6,,0.20,8,Rain,284